createdAt,value
2019-02-19T00:02:19.204Z,25.93
2019-02-19T00:04:45.052Z,22.87
2019-02-19T00:07:10.845Z,20.97
2019-02-19T00:09:36.668Z,27.77
2019-02-19T00:12:02.523Z,28.20
2019-02-19T00:14:28.346Z,22.40
2019-02-19T00:16:54.177Z,25.87
2019-02-19T00:19:20.000Z,17.87
2019-02-19T00:21:45.819Z,18.37
2019-02-19T00:24:11.629Z,19.90
2019-02-19T00:26:37.441Z,21.07
2019-02-19T00:29:03.275Z,18.90
2019-02-19T00:31:29.097Z,21.00
2019-02-19T00:33:54.922Z,21.90
2019-02-19T00:36:20.855Z,19.40
2019-02-19T00:38:46.689Z,20.83
2019-02-19T00:41:12.528Z,14.30
2019-02-19T00:43:38.332Z,17.00
2019-02-19T00:46:04.158Z,23.13
2019-02-19T00:48:29.982Z,19.67
2019-02-19T00:50:55.839Z,22.53
2019-02-19T00:53:21.677Z,22.20
2019-02-19T00:55:47.477Z,18.47
2019-02-19T00:58:13.297Z,16.17
2019-02-19T01:00:39.107Z,17.17
2019-02-19T01:03:04.967Z,17.30
2019-02-19T01:05:30.791Z,19.37
2019-02-19T01:07:56.614Z,19.37
2019-02-19T01:10:22.427Z,20.10
2019-02-19T01:12:48.235Z,19.67
2019-02-19T01:15:14.058Z,19.10
2019-02-19T01:17:39.926Z,18.13
2019-02-19T01:20:07.045Z,19.50
2019-02-19T01:22:32.883Z,19.07
2019-02-19T01:24:58.714Z,18.90
2019-02-19T01:27:24.562Z,24.33
2019-02-19T01:29:50.406Z,20.00
2019-02-19T01:32:16.214Z,15.93
2019-02-19T01:34:42.033Z,17.20
2019-02-19T01:37:07.953Z,21.00
2019-02-19T01:39:33.806Z,18.80
2019-02-19T01:41:59.650Z,19.80
2019-02-19T01:44:25.511Z,22.07
2019-02-19T01:46:51.322Z,17.97
2019-02-19T01:49:17.125Z,17.60
2019-02-19T01:51:42.946Z,22.07
2019-02-19T01:54:08.753Z,20.87
2019-02-19T01:56:34.572Z,19.17
2019-02-19T01:59:00.382Z,23.03
2019-02-19T02:01:26.190Z,20.10
2019-02-19T02:03:51.997Z,17.63
2019-02-19T02:06:17.821Z,18.50
2019-02-19T02:08:43.651Z,19.50
2019-02-19T02:11:09.475Z,17.67
2019-02-19T02:13:35.283Z,17.60
2019-02-19T02:16:01.077Z,18.13
2019-02-19T02:18:26.999Z,22.30
2019-02-19T02:20:52.818Z,19.47
2019-02-19T02:23:18.629Z,18.87
2019-02-19T02:25:44.505Z,19.13
2019-02-19T02:28:10.331Z,17.20
2019-02-19T02:30:36.146Z,19.27
2019-02-19T02:33:01.958Z,19.77
2019-02-19T02:35:27.763Z,17.73
2019-02-19T02:37:53.573Z,11.13
2019-02-19T02:40:19.397Z,14.87
2019-02-19T02:42:45.233Z,15.53
2019-02-19T02:45:11.050Z,15.30
2019-02-19T02:47:36.871Z,19.73
2019-02-19T02:50:03.330Z,16.17
2019-02-19T02:52:29.137Z,17.97
2019-02-19T02:54:54.958Z,19.50
2019-02-19T02:57:20.778Z,17.70
2019-02-19T02:59:46.641Z,13.77
2019-02-19T03:02:12.442Z,17.27
2019-02-19T03:04:38.367Z,18.93
2019-02-19T03:07:11.763Z,16.23
2019-02-19T03:09:37.582Z,14.83
2019-02-19T03:12:03.382Z,16.70
2019-02-19T03:14:29.198Z,16.97
2019-02-19T03:16:55.021Z,16.73
2019-02-19T03:19:20.862Z,18.10
2019-02-19T03:21:47.118Z,21.10
2019-02-19T03:24:12.928Z,14.90
2019-02-19T03:26:38.864Z,10.27
2019-02-19T03:29:04.695Z,17.43
2019-02-19T03:31:30.530Z,16.80
2019-02-19T03:33:56.344Z,19.33
2019-02-19T03:36:22.153Z,20.60
2019-02-19T03:38:47.964Z,18.80
2019-02-19T03:41:13.754Z,19.27
2019-02-19T03:43:39.571Z,12.87
2019-02-19T03:46:11.954Z,20.63
2019-02-19T03:48:34.142Z,15.10
2019-02-19T03:51:00.003Z,14.20
2019-02-19T03:53:25.853Z,17.70
2019-02-19T03:55:51.666Z,19.67
2019-02-19T03:58:17.478Z,14.60
2019-02-19T04:00:43.318Z,17.20
2019-02-19T04:03:09.123Z,20.03
2019-02-19T04:05:34.975Z,16.27
2019-02-19T04:08:00.775Z,16.53
2019-02-19T04:10:26.590Z,13.90
2019-02-19T04:12:52.400Z,16.10
2019-02-19T04:15:18.273Z,16.07
2019-02-19T04:17:44.119Z,18.43
2019-02-19T04:20:09.934Z,14.10
2019-02-19T04:22:35.784Z,20.27
2019-02-19T04:25:01.696Z,17.10
2019-02-19T04:27:28.626Z,16.50
2019-02-19T04:29:54.454Z,17.67
2019-02-19T04:32:20.288Z,14.33
2019-02-19T04:34:46.110Z,16.87
2019-02-19T04:37:11.961Z,16.90
2019-02-19T04:39:37.869Z,14.97
2019-02-19T04:42:03.705Z,19.83
2019-02-19T04:44:29.534Z,17.17
2019-02-19T04:46:55.358Z,17.67
2019-02-19T04:49:21.157Z,13.27
2019-02-19T04:51:46.988Z,16.00
2019-02-19T04:54:12.800Z,14.77
2019-02-19T04:56:38.648Z,17.70
2019-02-19T04:59:04.446Z,12.57
2019-02-19T05:01:30.277Z,14.03
2019-02-19T05:03:56.104Z,14.70
2019-02-19T05:06:21.928Z,15.07
2019-02-19T05:08:47.747Z,16.03
2019-02-19T05:11:13.554Z,13.47
2019-02-19T05:13:39.372Z,17.60
2019-02-19T05:16:05.222Z,15.43
2019-02-19T05:18:31.028Z,15.27
2019-02-19T05:20:56.859Z,13.10
2019-02-19T05:23:22.665Z,12.87
2019-02-19T05:25:48.509Z,15.07
2019-02-19T05:28:14.333Z,16.60
2019-02-19T05:30:40.151Z,12.87
2019-02-19T05:33:05.964Z,12.27
2019-02-19T05:35:31.840Z,15.53
2019-02-19T05:37:58.010Z,14.40
2019-02-19T05:40:23.831Z,11.03
2019-02-19T05:42:49.629Z,10.40
2019-02-19T05:45:15.465Z,14.07
2019-02-19T05:47:41.268Z,13.57
2019-02-19T05:50:07.498Z,9.97
2019-02-19T05:52:33.322Z,10.30
2019-02-19T05:54:59.967Z,12.33
2019-02-19T05:57:25.761Z,13.80
2019-02-19T05:59:51.597Z,12.67
2019-02-19T06:02:18.008Z,13.90
2019-02-19T06:04:43.837Z,14.30
2019-02-19T06:07:09.653Z,18.00
2019-02-19T06:09:36.574Z,12.13
2019-02-19T06:12:02.413Z,12.77
2019-02-19T06:14:28.248Z,17.40
2019-02-19T06:16:58.420Z,9.03
2019-02-19T06:19:22.094Z,12.93
2019-02-19T06:21:48.215Z,16.10
2019-02-19T06:24:14.022Z,13.90
2019-02-19T06:26:39.967Z,12.90
2019-02-19T06:29:05.793Z,15.73
2019-02-19T06:31:32.246Z,15.70
2019-02-19T06:33:58.088Z,12.37
2019-02-19T06:36:25.092Z,13.23
2019-02-19T06:38:50.942Z,20.33
2019-02-19T06:41:18.696Z,18.73
2019-02-19T06:43:47.675Z,15.63
2019-02-19T06:46:15.378Z,14.90
2019-02-19T06:48:42.273Z,17.43
2019-02-19T06:51:11.049Z,13.40
2019-02-19T06:53:39.218Z,12.40
2019-02-19T06:56:07.343Z,15.53
2019-02-19T06:58:33.180Z,16.70
2019-02-19T07:00:58.999Z,17.97
2019-02-19T07:03:28.650Z,15.13
2019-02-19T07:05:55.199Z,16.30
2019-02-19T07:08:21.053Z,9.97
2019-02-19T07:10:46.863Z,17.13
2019-02-19T07:13:12.722Z,11.23
2019-02-19T07:15:39.840Z,19.20
2019-02-19T07:18:12.156Z,12.80
2019-02-19T07:20:35.571Z,16.87
2019-02-19T07:23:01.438Z,15.77
2019-02-19T07:25:27.257Z,8.37
2019-02-19T07:27:53.074Z,17.20
2019-02-19T07:30:21.253Z,19.07
2019-02-19T07:32:47.111Z,16.67
2019-02-19T07:35:12.969Z,16.63
2019-02-19T07:37:40.943Z,19.30
2019-02-19T07:40:08.733Z,17.90
2019-02-19T07:42:34.937Z,15.13
2019-02-19T07:45:00.814Z,9.10
2019-02-19T07:47:26.634Z,18.47
2019-02-19T07:49:52.799Z,18.13
2019-02-19T07:52:18.599Z,13.87
2019-02-19T07:54:45.622Z,17.17
2019-02-19T07:57:13.310Z,17.93
2019-02-19T07:59:39.163Z,17.70
2019-02-19T08:02:04.960Z,13.57
2019-02-19T08:04:30.818Z,13.37
2019-02-19T08:06:56.633Z,20.97
2019-02-19T08:09:22.462Z,21.40
2019-02-19T08:11:48.312Z,19.60
2019-02-19T08:14:14.141Z,17.20
2019-02-19T08:16:39.956Z,20.73
2019-02-19T08:19:05.782Z,10.90
2019-02-19T08:21:31.668Z,19.60
2019-02-19T08:23:57.474Z,18.43
2019-02-19T08:26:23.290Z,14.20
2019-02-19T08:28:51.057Z,20.60
2019-02-19T08:31:16.896Z,20.77
2019-02-19T08:33:42.834Z,19.80
2019-02-19T08:36:08.679Z,15.37
2019-02-19T08:38:36.817Z,16.53
2019-02-19T08:41:02.654Z,15.27
2019-02-19T08:43:28.489Z,24.27
2019-02-19T08:45:55.195Z,21.00
2019-02-19T08:48:21.021Z,12.13
2019-02-19T08:50:46.842Z,18.67
2019-02-19T08:53:12.650Z,25.10
2019-02-19T08:55:38.497Z,16.30
2019-02-19T08:58:04.331Z,19.40
2019-02-19T09:00:30.154Z,11.07
2019-02-19T09:02:56.379Z,18.23
2019-02-19T09:05:22.227Z,18.00
2019-02-19T09:07:48.049Z,14.87
2019-02-19T09:10:13.899Z,16.40
2019-02-19T09:12:39.817Z,7.50
2019-02-19T09:15:11.160Z,21.37
2019-02-19T09:17:37.150Z,17.83
2019-02-19T09:20:04.569Z,21.97
2019-02-19T09:22:32.997Z,8.23
2019-02-19T09:24:58.817Z,17.23
2019-02-19T09:27:26.822Z,19.83
2019-02-19T09:29:54.958Z,6.97
2019-02-19T09:32:22.069Z,22.83
2019-02-19T09:34:47.899Z,15.83
2019-02-19T09:37:13.736Z,15.27
2019-02-19T09:39:39.625Z,15.77
2019-02-19T09:42:05.912Z,21.23
2019-02-19T09:44:31.729Z,22.73
2019-02-19T09:46:57.539Z,16.87
2019-02-19T09:49:23.401Z,16.27
2019-02-19T09:51:49.214Z,20.00
2019-02-19T09:54:15.026Z,12.43
2019-02-19T09:56:40.827Z,12.27
2019-02-19T09:59:08.550Z,12.60
2019-02-19T10:01:34.386Z,9.90
2019-02-19T10:04:00.229Z,13.03
2019-02-19T10:06:26.065Z,17.97
2019-02-19T10:08:51.905Z,22.63
2019-02-19T10:11:17.711Z,8.13
2019-02-19T10:13:45.455Z,12.83
2019-02-19T10:16:11.280Z,16.13
2019-02-19T10:18:37.113Z,16.17
2019-02-19T10:21:02.962Z,15.40
2019-02-19T10:23:28.781Z,10.73
2019-02-19T10:25:54.610Z,12.17
2019-02-19T10:28:20.446Z,10.87
2019-02-19T10:30:46.969Z,10.63
2019-02-19T10:33:12.903Z,6.37
2019-02-19T10:35:38.757Z,9.10
2019-02-19T10:38:04.581Z,5.30
2019-02-19T10:40:30.391Z,10.10
2019-02-19T10:42:56.226Z,7.37
2019-02-19T10:45:23.948Z,12.60
2019-02-19T10:47:50.180Z,16.47
2019-02-19T10:50:15.985Z,11.63
2019-02-19T10:52:41.805Z,13.67
2019-02-19T10:55:08.130Z,18.70
2019-02-19T10:57:33.982Z,17.10
2019-02-19T10:59:59.784Z,14.53
2019-02-19T11:02:26.971Z,15.90
2019-02-19T11:04:52.774Z,6.20
2019-02-19T11:07:18.585Z,12.00
2019-02-19T11:09:48.431Z,5.47
2019-02-19T11:12:14.258Z,6.23
2019-02-19T11:14:49.740Z,15.53
2019-02-19T11:17:17.239Z,11.67
2019-02-19T11:19:48.084Z,13.53
2019-02-19T11:22:13.909Z,11.50
2019-02-19T11:24:40.013Z,12.07
2019-02-19T11:27:05.838Z,11.30
2019-02-19T11:29:33.545Z,6.63
2019-02-19T11:31:59.425Z,7.13
2019-02-19T11:34:28.766Z,9.73
2019-02-19T11:36:55.789Z,14.17
2019-02-19T11:39:22.616Z,15.83
2019-02-19T11:41:48.852Z,9.77
2019-02-19T11:44:14.660Z,8.20
2019-02-19T11:46:45.092Z,10.13
2019-02-19T11:49:13.127Z,11.10
2019-02-19T11:51:38.936Z,13.20
2019-02-19T11:54:04.754Z,14.80
2019-02-19T11:56:30.574Z,17.03
2019-02-19T11:58:56.394Z,11.00
2019-02-19T12:01:22.213Z,12.63
2019-02-19T12:03:48.033Z,14.53
2019-02-19T12:06:15.041Z,11.87
2019-02-19T12:08:40.912Z,11.97
2019-02-19T12:11:08.757Z,8.37
2019-02-19T12:13:34.676Z,9.10
2019-02-19T12:16:00.532Z,11.13
2019-02-19T12:18:28.634Z,14.33
2019-02-19T12:20:54.462Z,17.70
2019-02-19T12:23:20.316Z,9.87
2019-02-19T12:25:48.394Z,13.67
2019-02-19T12:28:17.475Z,13.10
2019-02-19T12:30:43.289Z,13.30
2019-02-19T12:33:09.143Z,10.83
2019-02-19T12:35:34.991Z,6.10
2019-02-19T12:38:00.800Z,7.70
2019-02-19T12:40:27.029Z,8.97
2019-02-19T12:42:52.847Z,4.97
2019-02-19T12:45:18.662Z,5.30
2019-02-19T12:47:44.527Z,11.40
2019-02-19T12:50:11.443Z,5.20
2019-02-19T12:52:37.259Z,9.33
2019-02-19T12:55:03.572Z,4.13
2019-02-19T12:57:29.518Z,7.17
2019-02-19T12:59:56.767Z,6.20
2019-02-19T13:02:23.000Z,5.30
2019-02-19T13:04:48.891Z,7.57
2019-02-19T13:07:14.732Z,10.33
2019-02-19T13:09:40.548Z,12.27
2019-02-19T13:12:06.379Z,10.60
2019-02-19T13:14:32.192Z,8.13
2019-02-19T13:17:00.915Z,7.00
2019-02-19T13:19:27.143Z,10.07
2019-02-19T13:21:52.999Z,9.90
2019-02-19T13:24:20.098Z,7.07
2019-02-19T13:26:45.975Z,9.20
2019-02-19T13:29:11.813Z,4.00
2019-02-19T13:31:37.633Z,8.13
2019-02-19T13:34:03.461Z,5.60
2019-02-19T13:36:29.301Z,5.53
2019-02-19T13:38:55.173Z,12.33
2019-02-19T13:41:21.005Z,6.43
2019-02-19T13:43:47.571Z,7.77
2019-02-19T13:46:13.677Z,12.97
2019-02-19T13:48:39.504Z,12.00
2019-02-19T13:51:05.370Z,7.30
2019-02-19T13:53:33.086Z,9.03
2019-02-19T13:56:00.114Z,9.70
2019-02-19T13:58:25.933Z,5.20
2019-02-19T14:00:51.773Z,7.90
2019-02-19T14:03:17.634Z,4.87
2019-02-19T14:05:43.447Z,6.67
2019-02-19T14:08:14.694Z,5.97
2019-02-19T14:10:36.969Z,8.23
2019-02-19T14:13:02.811Z,1.37
2019-02-19T14:15:37.895Z,4.63
2019-02-19T14:18:05.414Z,3.47
2019-02-19T14:20:51.293Z,3.20
2019-02-19T14:23:33.903Z,7.43
2019-02-19T14:26:18.509Z,10.37
2019-02-19T14:28:49.729Z,7.67
2019-02-19T14:31:26.519Z,9.73
2019-02-19T14:33:56.918Z,5.70
2019-02-19T14:36:33.563Z,2.33
2019-02-19T14:39:03.944Z,4.00
2019-02-19T14:41:42.681Z,7.57
2019-02-19T14:44:19.621Z,7.60
2019-02-19T14:46:50.001Z,7.73
2019-02-19T14:49:20.603Z,4.90
2019-02-19T14:51:57.264Z,7.60
2019-02-19T14:54:40.117Z,9.00
2019-02-19T14:57:16.721Z,6.00
2019-02-19T14:59:50.543Z,5.60
2019-02-19T15:02:18.266Z,5.80
2019-02-19T15:04:51.941Z,5.30
2019-02-19T15:07:37.856Z,4.13
2019-02-19T15:10:07.270Z,5.30
2019-02-19T15:12:40.619Z,5.93
2019-02-19T15:15:09.542Z,10.80
2019-02-19T15:17:43.179Z,5.73
2019-02-19T15:20:27.586Z,4.90
2019-02-19T15:23:12.098Z,5.70
2019-02-19T15:25:51.956Z,7.07
2019-02-19T15:28:34.673Z,10.53
2019-02-19T15:31:19.213Z,7.13
2019-02-19T15:33:52.868Z,5.33
2019-02-19T15:36:35.721Z,14.40
2019-02-19T15:39:03.486Z,2.50
2019-02-19T15:41:33.203Z,7.87
2019-02-19T15:44:09.789Z,11.53
2019-02-19T15:46:49.718Z,9.70
2019-02-19T15:49:17.456Z,10.97
2019-02-19T15:51:50.826Z,8.73
2019-02-19T15:54:21.398Z,5.23
2019-02-19T15:57:05.986Z,4.77
2019-02-19T15:59:51.584Z,14.67
2019-02-19T16:02:19.307Z,6.23
2019-02-19T16:04:49.877Z,10.50
2019-02-19T16:07:23.290Z,4.73
2019-02-19T16:09:56.986Z,6.97
2019-02-19T16:12:41.526Z,11.20
2019-02-19T16:15:18.708Z,7.73
2019-02-19T16:17:52.550Z,9.73
2019-02-19T16:20:32.366Z,13.17
2019-02-19T16:23:12.190Z,9.03
2019-02-19T16:25:51.852Z,10.70
2019-02-19T16:28:19.835Z,12.60
2019-02-19T16:31:03.105Z,13.40
2019-02-19T16:33:30.838Z,10.80
2019-02-19T16:35:58.833Z,11.60
2019-02-19T16:38:32.622Z,8.97
2019-02-19T16:41:09.425Z,9.40
2019-02-19T16:43:40.084Z,9.73
2019-02-19T16:46:24.567Z,7.50
2019-02-19T16:48:52.498Z,8.00
2019-02-19T16:51:26.105Z,11.00
2019-02-19T16:54:11.221Z,15.57
2019-02-19T16:56:55.849Z,10.03
2019-02-19T16:59:35.463Z,13.37
2019-02-19T17:02:15.074Z,11.37
2019-02-19T17:04:48.606Z,12.63
2019-02-19T17:07:34.534Z,11.33
2019-02-19T17:10:02.251Z,13.90
2019-02-19T17:12:34.266Z,16.30
2019-02-19T17:15:10.966Z,4.10
2019-02-19T17:17:44.565Z,8.67
2019-02-19T17:20:28.785Z,11.77
2019-02-19T17:22:50.547Z,11.47
2019-02-19T17:25:18.283Z,10.20
2019-02-19T17:27:55.278Z,13.17
2019-02-19T17:30:30.028Z,19.03
2019-02-19T17:33:06.648Z,12.77
2019-02-19T17:35:36.346Z,6.17
2019-02-19T17:38:20.509Z,11.03
2019-02-19T17:40:54.153Z,8.83
2019-02-19T17:43:24.860Z,15.63
2019-02-19T17:45:55.214Z,10.83
2019-02-19T17:48:35.133Z,8.07
2019-02-19T17:51:02.859Z,13.53
2019-02-19T17:53:30.798Z,12.13
2019-02-19T17:55:58.529Z,8.43
2019-02-19T17:58:27.589Z,11.10
2019-02-19T18:00:55.348Z,14.23
2019-02-19T18:03:25.818Z,13.03
2019-02-19T18:05:59.563Z,10.63
2019-02-19T18:08:33.169Z,11.03
2019-02-19T18:11:03.783Z,12.53
2019-02-19T18:13:40.338Z,11.33
2019-02-19T18:16:19.990Z,9.33
2019-02-19T18:18:50.406Z,7.93
2019-02-19T18:21:16.338Z,10.93
2019-02-19T18:23:42.279Z,10.83
2019-02-19T18:26:08.154Z,10.00
2019-02-19T18:28:33.986Z,9.43
2019-02-19T18:31:01.760Z,11.33
2019-02-19T18:33:29.445Z,13.53
2019-02-19T18:35:55.364Z,33.37
2019-02-19T18:38:23.439Z,26.80
2019-02-19T18:40:49.254Z,19.67
2019-02-19T18:43:15.063Z,21.87
2019-02-19T18:45:41.039Z,22.80
2019-02-19T18:48:06.842Z,23.47
2019-02-19T18:50:32.679Z,15.17
2019-02-19T18:52:58.525Z,20.67
2019-02-19T18:55:24.437Z,15.70
2019-02-19T18:57:50.503Z,15.90
2019-02-19T19:00:17.987Z,13.83
2019-02-19T19:02:43.897Z,12.57
2019-02-19T19:05:09.814Z,12.00
2019-02-19T19:07:36.830Z,16.40
2019-02-19T19:10:04.425Z,16.70
2019-02-19T19:12:30.953Z,12.00
2019-02-19T19:14:56.791Z,10.57
2019-02-19T19:17:22.609Z,13.27
2019-02-19T19:19:48.422Z,15.37
2019-02-19T19:22:14.260Z,10.13
2019-02-19T19:24:40.055Z,9.23
2019-02-19T19:27:05.903Z,10.50
2019-02-19T19:29:31.729Z,8.33
2019-02-19T19:31:57.550Z,13.90
2019-02-19T19:34:23.409Z,14.17
2019-02-19T19:36:49.254Z,16.03
2019-02-19T19:39:15.070Z,12.73
2019-02-19T19:41:40.927Z,14.57
2019-02-19T19:44:07.108Z,13.37
2019-02-19T19:46:32.944Z,7.60
2019-02-19T19:48:58.773Z,13.40
2019-02-19T19:51:25.953Z,11.03
2019-02-19T19:53:54.152Z,9.33
2019-02-19T19:56:19.958Z,14.30
2019-02-19T19:58:45.770Z,8.30
2019-02-19T20:01:11.585Z,11.03
2019-02-19T20:03:38.594Z,8.43
2019-02-19T20:06:04.447Z,11.17
2019-02-19T20:08:30.389Z,14.87
2019-02-19T20:10:56.342Z,13.00
2019-02-19T20:13:22.170Z,11.70
2019-02-19T20:15:48.058Z,10.40
2019-02-19T20:18:13.897Z,10.90
2019-02-19T20:20:39.721Z,10.27
2019-02-19T20:23:05.518Z,9.70
2019-02-19T20:25:31.377Z,10.00
2019-02-19T20:27:57.186Z,15.83
2019-02-19T20:30:23.093Z,10.27
2019-02-19T20:32:49.339Z,11.47
2019-02-19T20:35:18.338Z,8.83
2019-02-19T20:37:44.184Z,10.17
2019-02-19T20:40:10.915Z,11.00
2019-02-19T20:42:37.943Z,8.23
2019-02-19T20:45:05.812Z,11.47
2019-02-19T20:47:33.556Z,14.33
2019-02-19T20:49:59.458Z,11.27
2019-02-19T20:52:25.257Z,14.53
2019-02-19T20:54:51.094Z,7.93
2019-02-19T20:57:17.892Z,9.20
2019-02-19T20:59:43.893Z,10.73
2019-02-19T21:02:09.814Z,8.60
2019-02-19T21:04:35.617Z,8.50
2019-02-19T21:07:01.538Z,9.97
2019-02-19T21:09:27.649Z,11.03
2019-02-19T21:11:53.605Z,12.37
2019-02-19T21:14:19.449Z,11.53
2019-02-19T21:16:45.369Z,17.77
2019-02-19T21:19:11.278Z,14.70
2019-02-19T21:21:44.760Z,6.30
2019-02-19T21:24:05.041Z,18.20
2019-02-19T21:26:32.080Z,6.43
2019-02-19T21:28:58.345Z,8.27
2019-02-19T21:31:24.265Z,12.07
2019-02-19T21:33:50.517Z,9.77
2019-02-19T21:36:16.436Z,16.33
2019-02-19T21:38:42.842Z,12.13
2019-02-19T21:41:10.161Z,10.87
2019-02-19T21:43:36.070Z,12.13
2019-02-19T21:46:02.112Z,10.87
2019-02-19T21:48:28.153Z,18.67
2019-02-19T21:50:54.078Z,8.63
2019-02-19T21:53:19.979Z,17.07
2019-02-19T21:55:45.818Z,13.80
2019-02-19T21:58:11.858Z,13.77
2019-02-19T22:00:37.734Z,9.20
2019-02-19T22:03:03.981Z,6.93
2019-02-19T22:05:30.208Z,12.60
2019-02-19T22:07:56.135Z,11.47
2019-02-19T22:10:22.025Z,11.07
2019-02-19T22:12:47.851Z,5.20
2019-02-19T22:15:13.853Z,14.10
2019-02-19T22:17:39.726Z,9.67
2019-02-19T22:20:09.322Z,9.63
2019-02-19T22:22:35.266Z,10.57
2019-02-19T22:25:01.174Z,10.40
2019-02-19T22:27:26.985Z,11.77
2019-02-19T22:29:52.787Z,18.33
2019-02-19T22:32:19.323Z,10.77
2019-02-19T22:34:45.158Z,13.57
2019-02-19T22:37:10.956Z,13.30
2019-02-19T22:39:36.775Z,16.07
2019-02-19T22:42:02.569Z,11.57
2019-02-19T22:44:28.432Z,12.10
2019-02-19T22:46:54.221Z,9.50
2019-02-19T22:49:20.033Z,7.57
2019-02-19T22:51:45.849Z,10.80
2019-02-19T22:54:13.571Z,9.43
2019-02-19T22:56:39.477Z,12.93
2019-02-19T22:59:05.338Z,7.00
2019-02-19T23:01:42.060Z,15.20
2019-02-19T23:04:08.265Z,10.30
2019-02-19T23:06:34.173Z,10.23
2019-02-19T23:09:00.025Z,9.67
2019-02-19T23:11:25.842Z,16.43
2019-02-19T23:13:51.667Z,15.67
2019-02-19T23:16:17.565Z,15.03
2019-02-19T23:18:43.393Z,9.37
2019-02-19T23:21:09.198Z,11.57
2019-02-19T23:23:35.052Z,8.90
2019-02-19T23:26:00.849Z,8.53
2019-02-19T23:28:26.674Z,14.13
2019-02-19T23:30:52.470Z,7.40
2019-02-19T23:33:18.286Z,10.33
2019-02-19T23:35:46.006Z,7.93
2019-02-19T23:38:11.891Z,9.33
2019-02-19T23:40:37.694Z,10.43
2019-02-19T23:43:03.507Z,9.07
2019-02-19T23:45:29.318Z,11.63
2019-02-19T23:47:55.121Z,11.87
2019-02-19T23:50:20.970Z,9.90
2019-02-19T23:52:46.774Z,8.63
2019-02-19T23:55:12.589Z,12.87
2019-02-19T23:57:38.401Z,9.20
